Terminal Aerodrome Forecast
Issued by NWS

Home | Current Version | Previous Version | Text Only | Print | Product List | Glossary On
Versions: 1 2 3 4 5 6 7 8 9 10 11 12 13 14 15 16 17 18 19 20 21 22 23 24 25 26 27 28 29
000
FTUS43 KDLH 241702 AAD
TAFHIB
TAF AMD
KHIB 241702Z 2417/2512 36008KT 6SM BR OVC007
      TEMPO 2417/2418 P6SM NSW OVC010
     FM241800 01007KT P6SM OVC010
     FM242100 02008KT P6SM OVC035
     FM250600 09004KT P6SM SCT015=

USA.gov is the U.S. government's official web portal to all federal, state and local government web resources and services.